Time;durP1;ratioP1;P1;durP2;ratioP2;P2;SDS_P1;SDS_P2;PMS_P1;PMS_P2;Temp;Humidity;BMP_temperature;BMP_pressure;BME280_temperature;BME280_humidity;BME280_pressure;Samples;Min_cycle;Max_cycle;Signal;HPM_P1;HPM_P2
2021/12/31 00:00:26;;;;;;;7.07;2.55;;;;;;;12.87;100.00;101780.06;5096745;28;20081;-37
2021/12/31 00:02:52;;;;;;;6.95;2.83;;;;;;;12.86;100.00;101773.00;5095910;28;20540;-37
2021/12/31 00:05:17;;;;;;;4.35;1.90;;;;;;;12.85;100.00;101782.19;5095981;28;20024;-37
2021/12/31 00:07:45;;;;;;;7.67;2.10;;;;;;;12.91;100.00;101781.28;5096458;28;20512;-37
2021/12/31 00:10:10;;;;;;;6.60;2.55;;;;;;;12.89;100.00;101780.69;5096094;28;20028;-37
2021/12/31 00:12:36;;;;;;;5.55;1.98;;;;;;;12.90;100.00;101779.66;5095767;28;20357;-37
2021/12/31 00:15:02;;;;;;;4.53;2.03;;;;;;;12.92;100.00;101788.38;5095723;28;20476;-36
2021/12/31 00:17:28;;;;;;;7.32;2.25;;;;;;;12.80;100.00;101768.47;5095907;28;20069;-36
2021/12/31 00:20:02;;;;;;;7.43;2.13;;;;;;;12.90;100.00;101785.06;5095819;28;20032;-36
2021/12/31 00:25:12;;;;;;;5.25;2.05;;;;;;;12.89;99.82;101772.56;5095848;28;20047;-36
2021/12/31 00:27:37;;;;;;;6.28;2.40;;;;;;;12.90;99.76;101785.06;5095652;28;20448;-36
2021/12/31 00:30:04;;;;;;;6.57;1.92;;;;;;;13.02;99.17;101787.88;5095682;28;20453;-36
2021/12/31 00:32:29;;;;;;;4.70;2.00;;;;;;;13.02;99.21;101785.16;5095369;28;20048;-37
2021/12/31 00:34:55;;;;;;;5.78;2.40;;;;;;;12.92;98.98;101769.38;5095671;28;20492;-36
2021/12/31 00:37:29;;;;;;;3.90;1.60;;;;;;;12.96;99.53;101786.88;5095239;28;20031;-36
2021/12/31 00:39:54;;;;;;;6.00;2.00;;;;;;;12.88;99.43;101776.31;5094949;28;20028;-36
2021/12/31 00:42:20;;;;;;;8.10;2.20;;;;;;;12.98;99.17;101786.66;5095167;28;20573;-36
2021/12/31 00:44:45;;;;;;;6.00;1.83;;;;;;;12.97;99.33;101795.84;5094800;28;20274;-36
2021/12/31 00:47:11;;;;;;;4.40;1.80;;;;;;;12.77;99.73;101768.91;5094392;28;20024;-36
2021/12/31 00:49:36;;;;;;;7.00;2.07;;;;;;;12.92;99.68;101787.56;5095109;28;20052;-36
2021/12/31 00:52:01;;;;;;;9.43;2.27;;;;;;;12.85;99.29;101776.78;5094913;28;20028;-36
2021/12/31 00:54:27;;;;;;;6.22;2.08;;;;;;;12.83;99.75;101770.72;5095555;28;20039;-36
2021/12/31 00:56:54;;;;;;;8.53;2.97;;;;;;;12.92;98.68;101791.09;5094927;28;20024;-36
2021/12/31 00:59:19;;;;;;;4.95;1.73;;;;;;;12.78;98.37;101759.69;5095502;28;20349;-36
2021/12/31 01:01:44;;;;;;;5.60;1.70;;;;;;;12.92;98.79;101792.97;5095198;28;20035;-37
2021/12/31 01:04:10;;;;;;;7.10;2.47;;;;;;;12.92;98.81;101793.81;5094712;28;20024;-37
2021/12/31 01:06:35;;;;;;;7.20;2.13;;;;;;;12.92;98.76;101801.94;5094575;28;20131;-37
2021/12/31 01:09:00;;;;;;;4.40;2.00;;;;;;;12.82;98.53;101778.03;5094637;28;20536;-37
2021/12/31 01:11:26;;;;;;;6.50;1.87;;;;;;;12.89;98.90;101794.28;5094367;28;20115;-36
2021/12/31 01:14:00;;;;;;;7.37;2.33;;;;;;;12.88;99.10;101784.44;5094585;28;20262;-37
2021/12/31 01:16:35;;;;;;;7.03;1.95;;;;;;;12.87;99.26;101801.78;5094488;28;20031;-36
2021/12/31 01:21:27;;;;;;;5.32;1.73;;;;;;;12.84;98.77;101794.13;5094452;28;20036;-37
2021/12/31 01:23:53;;;;;;;7.03;2.17;;;;;;;12.84;99.36;101794.13;5095059;28;20479;-36
2021/12/31 01:26:18;;;;;;;6.13;2.20;;;;;;;12.82;99.19;101788.06;5094809;28;20277;-36
2021/12/31 01:28:45;;;;;;;3.35;1.92;;;;;;;12.82;98.88;101786.19;5095071;28;20409;-37
2021/12/31 01:31:10;;;;;;;5.93;1.83;;;;;;;12.75;98.99;101771.84;5094236;28;20077;-37
2021/12/31 01:33:36;;;;;;;7.80;2.63;;;;;;;12.82;99.14;101788.06;5094721;28;20036;-36
2021/12/31 01:36:01;;;;;;;4.30;1.88;;;;;;;12.82;99.03;101793.50;5094503;28;20119;-36
2021/12/31 01:38:28;;;;;;;9.55;2.60;;;;;;;12.82;98.94;101804.34;5094948;28;20437;-37
2021/12/31 01:40:54;;;;;;;7.38;2.47;;;;;;;12.74;99.20;101791.09;5094032;28;20089;-37
2021/12/31 01:43:20;;;;;;;4.88;1.83;;;;;;;12.81;99.56;101802.69;5094046;28;20028;-37
2021/12/31 01:45:55;;;;;;;;;;;;;;;12.82;99.33;101801.63;5094653;28;20036;-36
2021/12/31 01:50:51;;;;;;;8.25;2.38;;;;;;;12.75;98.57;101800.88;5093992;28;20392;-36
2021/12/31 01:53:17;;;;;;;5.07;2.13;;;;;;;12.75;98.70;101799.00;5093874;28;20034;-37
2021/12/31 01:55:43;;;;;;;6.40;1.88;;;;;;;12.80;98.45;101801.03;5094542;28;20063;-36
2021/12/31 01:58:09;;;;;;;4.73;1.67;;;;;;;12.80;98.56;101809.19;5093426;28;20063;-36
2021/12/31 02:00:36;;;;;;;6.13;2.05;;;;;;;12.82;98.43;101812.50;5093729;28;20030;-36
2021/12/31 02:03:04;;;;;;;5.43;2.05;;;;;;;12.80;98.74;101812.72;5093633;28;20050;-36
2021/12/31 02:05:30;;;;;;;8.43;2.15;;;;;;;12.82;98.08;101823.34;5093159;28;20478;-37
2021/12/31 02:07:55;;;;;;;4.77;1.80;;;;;;;12.75;97.92;101807.13;5093487;28;20036;-36
2021/12/31 02:10:20;;;;;;;6.90;2.10;;;;;;;12.76;98.33;101806.06;5094133;28;20024;-37
2021/12/31 02:12:48;;;;;;;3.60;1.87;;;;;;;12.82;97.90;101809.78;5093562;28;20258;-36
2021/12/31 02:15:16;;;;;;;4.38;1.70;;;;;;;12.83;97.95;101819.56;5094218;28;20384;-36
2021/12/31 02:17:41;;;;;;;4.88;1.75;;;;;;;12.83;97.84;101823.16;5093684;28;20028;-37
2021/12/31 02:20:07;;;;;;;4.53;1.77;;;;;;;12.81;98.31;101817.09;5093710;28;20051;-36
2021/12/31 02:22:40;;;;;;;;;;;;;;;12.84;98.09;101810.41;5075257;28;20316;-36
2021/12/31 02:25:07;;;;;;;6.78;1.83;;;;;;;12.82;97.99;101812.50;5094029;28;19912;-36
2021/12/31 02:27:38;;;;;;;8.02;1.90;;;;;;;12.79;98.02;101797.50;5093360;28;20047;-37
2021/12/31 02:30:04;;;;;;;4.30;1.75;;;;;;;12.80;97.76;101803.75;5093254;28;20464;-36
2021/12/31 02:32:30;;;;;;;6.88;1.90;;;;;;;12.72;98.32;101798.59;5092927;28;20032;-36
2021/12/31 02:34:55;;;;;;;5.22;1.65;;;;;;;12.77;98.16;101801.47;5093608;28;20036;-37
2021/12/31 02:37:21;;;;;;;3.50;1.70;;;;;;;12.74;97.84;101791.91;5093186;28;20164;-36
2021/12/31 02:39:47;;;;;;;4.45;1.80;;;;;;;12.75;97.86;101803.59;5093545;28;20028;-36
2021/12/31 02:42:13;;;;;;;4.63;1.45;;;;;;;12.66;98.07;101772.34;5093658;28;20375;-36
2021/12/31 02:44:40;;;;;;;5.45;1.58;;;;;;;12.76;97.93;101799.81;5093383;28;20134;-37
2021/12/31 02:47:06;;;;;;;6.63;1.83;;;;;;;12.75;97.73;101790.03;5093365;28;20105;-36
2021/12/31 02:49:36;;;;;;;8.43;1.85;;;;;;;12.66;97.64;101772.34;5093697;28;20082;-36
2021/12/31 02:52:04;;;;;;;5.07;2.17;;;;;;;12.73;97.74;101781.25;5093095;28;20032;-36
2021/12/31 02:54:32;;;;;;;4.13;1.98;;;;;;;12.63;97.98;101771.72;5093240;28;20039;-37
2021/12/31 02:56:57;;;;;;;4.07;1.42;;;;;;;12.72;97.45;101780.44;5092998;28;20035;-37
2021/12/31 02:59:23;;;;;;;4.80;1.85;;;;;;;12.66;97.59;101775.06;5093078;28;20028;-37
2021/12/31 03:01:49;;;;;;;4.20;1.63;;;;;;;12.72;97.52;101782.31;5093082;28;20020;-37
2021/12/31 03:04:16;;;;;;;4.40;1.45;;;;;;;12.73;97.23;101792.09;5092890;28;20038;-36
2021/12/31 03:06:43;;;;;;;6.05;2.05;;;;;;;12.72;97.14;101783.13;5092964;28;20021;-36
2021/12/31 03:09:10;;;;;;;8.77;1.95;;;;;;;12.74;97.31;101785.66;5093890;28;20044;-36
2021/12/31 03:11:37;;;;;;;5.18;1.52;;;;;;;12.70;97.60;101785.25;5096952;28;20047;-36
2021/12/31 03:14:02;;;;;;;;;;;;;;;12.72;97.87;101775.00;5097389;28;20032;-36
2021/12/31 03:16:28;;;;;;;4.07;1.67;;;;;;;12.69;97.38;101777.31;5096869;28;20299;-37
2021/12/31 03:18:55;;;;;;;5.45;1.80;;;;;;;12.69;97.32;101777.31;5097454;28;20384;-37
2021/12/31 03:21:22;;;;;;;5.03;1.85;;;;;;;12.69;97.26;101774.59;5096440;28;20032;-37
2021/12/31 03:23:49;;;;;;;5.43;1.95;;;;;;;12.68;97.14;101775.66;5097209;28;20028;-36
2021/12/31 03:26:15;;;;;;;5.38;1.92;;;;;;;12.67;97.34;101772.13;5096837;28;20035;-36
2021/12/31 03:28:40;;;;;;;6.30;1.90;;;;;;;12.67;96.89;101768.59;5096711;28;20387;-36
2021/12/31 03:31:05;;;;;;;5.32;1.70;;;;;;;12.62;96.73;101761.09;5096659;28;20026;-37
2021/12/31 03:33:31;;;;;;;4.43;1.70;;;;;;;12.57;97.02;101758.22;5096740;28;20486;-36
2021/12/31 03:35:56;;;;;;;6.28;1.80;;;;;;;12.62;97.17;101774.66;5097097;28;20028;-37
2021/12/31 03:38:21;;;;;;;5.23;2.23;;;;;;;12.62;97.04;101767.34;5096488;28;20392;-37
2021/12/31 03:40:47;;;;;;;4.00;1.70;;;;;;;12.60;97.15;101758.63;5096412;28;20262;-37
2021/12/31 03:43:14;;;;;;;8.27;2.38;;;;;;;12.54;96.63;101754.09;5096080;28;20031;-37
2021/12/31 03:45:40;;;;;;;8.15;2.20;;;;;;;12.51;96.71;101748.28;5095921;28;20024;-37
2021/12/31 03:48:06;;;;;;;6.60;1.90;;;;;;;12.60;97.22;101768.66;5096186;28;20032;-37
2021/12/31 03:50:31;;;;;;;3.97;1.98;;;;;;;12.59;96.92;101762.41;5096556;28;20030;-36
2021/12/31 03:52:56;;;;;;;5.85;2.10;;;;;;;12.59;97.29;101762.41;5096160;28;20058;-36
2021/12/31 03:55:22;;;;;;;7.83;2.00;;;;;;;12.57;97.20;101759.06;5096206;28;20427;-37
2021/12/31 03:57:47;;;;;;;6.50;1.80;;;;;;;12.46;97.15;101743.50;5095986;28;20618;-36
2021/12/31 04:00:13;;;;;;;6.93;2.00;;;;;;;12.57;97.23;101760.94;5096117;28;20103;-36
2021/12/31 04:02:39;;;;;;;4.53;1.75;;;;;;;12.58;96.87;101759.88;5096477;28;20110;-37
2021/12/31 04:05:05;;;;;;;4.95;1.80;;;;;;;12.55;97.65;101766.59;5095936;28;20206;-37
2021/12/31 04:07:30;;;;;;;8.70;3.13;;;;;;;12.54;97.36;101756.81;5096147;28;20031;-36
2021/12/31 04:09:55;;;;;;;9.67;1.87;;;;;;;12.54;97.19;101761.38;5096658;28;20048;-37
2021/12/31 04:12:22;;;;;;;5.10;2.25;;;;;;;12.50;97.71;101752.03;5096015;28;20031;-37
2021/12/31 04:14:47;;;;;;;4.90;1.73;;;;;;;12.53;97.36;101757.84;5095765;28;20170;-37
2021/12/31 04:17:13;;;;;;;5.63;2.07;;;;;;;12.50;97.69;101761.00;5095650;28;20499;-36
2021/12/31 04:19:38;;;;;;;5.73;2.00;;;;;;;12.49;97.43;101755.78;5095711;28;20028;-37
2021/12/31 04:22:04;;;;;;;6.17;2.30;;;;;;;12.51;97.62;101764.56;5094237;28;20366;-36
2021/12/31 04:24:51;;;;;;;6.05;1.90;;;;;;;12.50;97.68;101757.47;5095747;28;20339;-36
2021/12/31 04:27:15;;;;;;;6.95;2.25;;;;;;;12.45;97.85;101750.00;5095323;28;20036;-36
2021/12/31 04:29:47;;;;;;;5.88;2.00;;;;;;;12.40;97.89;101741.69;5095566;28;20131;-37
2021/12/31 04:32:12;;;;;;;8.68;3.22;;;;;;;12.49;97.75;101756.63;5078031;28;20028;-37
2021/12/31 04:34:37;;;;;;;7.87;2.00;;;;;;;12.47;97.71;101750.59;5095313;28;20050;-36
2021/12/31 04:37:03;;;;;;;7.03;2.33;;;;;;;12.47;97.82;101747.03;5095559;28;20032;-37
2021/12/31 04:39:28;;;;;;;6.15;2.33;;;;;;;12.47;97.78;101742.44;5094964;28;20441;-36
2021/12/31 04:41:54;;;;;;;5.40;1.98;;;;;;;12.48;97.67;101738.69;5095235;28;20078;-36
2021/12/31 04:44:19;;;;;;;9.63;2.63;;;;;;;12.35;98.48;101712.50;5094871;28;20082;-36
2021/12/31 04:46:44;;;;;;;6.07;2.67;;;;;;;12.45;98.06;101736.44;5095155;28;20100;-36
2021/12/31 04:49:10;;;;;;;8.37;2.90;;;;;;;12.45;97.67;101728.28;5095191;28;20056;-36
2021/12/31 04:51:35;;;;;;;9.00;2.00;;;;;;;12.40;97.65;101720.00;5095039;28;20059;-36
2021/12/31 04:54:01;;;;;;;6.18;2.45;;;;;;;12.43;98.12;101727.66;5094938;28;20028;-37
2021/12/31 04:56:26;;;;;;;4.68;2.28;;;;;;;12.34;97.61;101710.81;5094904;28;20036;-37
2021/12/31 04:58:52;;;;;;;5.13;2.50;;;;;;;12.46;97.29;101737.25;5095485;28;20036;-36
2021/12/31 05:01:21;;;;;;;6.13;2.72;;;;;;;12.45;97.75;101741.03;5094494;28;20483;-36
2021/12/31 05:03:47;;;;;;;6.28;1.98;;;;;;;12.42;97.71;101734.16;5094813;28;20111;-36
2021/12/31 05:06:12;;;;;;;4.65;2.03;;;;;;;12.45;97.60;101727.47;5094667;28;20046;-36
2021/12/31 05:08:38;;;;;;;6.00;2.30;;;;;;;12.44;97.50;101734.75;5095080;28;20127;-37
2021/12/31 05:11:03;;;;;;;6.30;2.67;;;;;;;12.47;96.82;101736.19;5094658;28;20107;-37
2021/12/31 05:13:28;;;;;;;5.10;2.10;;;;;;;12.44;97.29;101751.03;5094921;28;20024;-36
2021/12/31 05:15:57;;;;;;;5.60;2.27;;;;;;;12.46;96.65;101746.22;5094946;28;20063;-37
2021/12/31 05:18:23;;;;;;;5.95;2.40;;;;;;;12.44;96.75;101751.03;5094199;28;20038;-36
2021/12/31 05:20:49;;;;;;;4.93;2.40;;;;;;;12.38;96.86;101724.78;5094743;28;20059;-37
2021/12/31 05:23:14;;;;;;;6.17;2.20;;;;;;;12.42;97.05;101742.28;5094170;28;20113;-37
2021/12/31 05:25:40;;;;;;;4.43;1.85;;;;;;;12.42;96.82;101731.44;5093995;28;20684;-36
2021/12/31 05:28:05;;;;;;;7.23;2.30;;;;;;;12.37;96.72;101725.84;5094377;28;20028;-36
2021/12/31 05:30:30;;;;;;;4.97;2.30;;;;;;;12.43;96.33;101726.84;5094317;28;20035;-36
2021/12/31 05:32:55;;;;;;;5.87;2.40;;;;;;;12.42;96.00;101720.59;5093994;28;20273;-36
2021/12/31 05:35:21;;;;;;;5.90;2.47;;;;;;;12.36;96.54;101713.34;5094527;28;20024;-37
2021/12/31 05:37:46;;;;;;;5.50;2.15;;;;;;;12.34;96.68;101704.56;5094116;28;20024;-36
2021/12/31 05:40:12;;;;;;;5.38;2.28;;;;;;;12.27;96.52;101690.25;5094665;28;20077;-36
2021/12/31 05:42:37;;;;;;;5.30;2.17;;;;;;;12.21;96.23;101680.31;5094087;28;20073;-36
2021/12/31 05:45:03;;;;;;;5.28;2.30;;;;;;;12.34;95.99;101699.16;5093946;28;20111;-37
2021/12/31 05:47:29;;;;;;;5.25;2.50;;;;;;;12.31;96.25;101696.91;5093893;28;20052;-36
2021/12/31 05:49:54;;;;;;;7.40;2.33;;;;;;;12.26;96.11;101689.44;5094010;28;20421;-37
2021/12/31 05:52:20;;;;;;;5.72;2.15;;;;;;;12.26;96.00;101694.03;5093904;28;20032;-36
2021/12/31 05:54:46;;;;;;;6.13;2.33;;;;;;;12.17;96.34;101684.50;5094631;28;20380;-36
2021/12/31 05:57:11;;;;;;;8.63;2.87;;;;;;;12.11;95.70;101689.75;5093560;28;20024;-36
2021/12/31 05:59:36;;;;;;;7.57;2.03;;;;;;;12.17;95.85;101700.78;5093709;28;20024;-36
2021/12/31 06:02:02;;;;;;;3.70;1.93;;;;;;;12.08;96.16;101698.31;5093897;28;20031;-37
2021/12/31 06:04:27;;;;;;;6.13;1.85;;;;;;;12.05;96.28;101703.34;5093602;28;20032;-36
2021/12/31 06:06:52;;;;;;;6.77;2.00;;;;;;;11.98;96.40;101697.97;5093658;28;20056;-36
2021/12/31 06:09:18;;;;;;;7.67;2.37;;;;;;;12.02;96.03;101696.50;5094377;28;20273;-37
2021/12/31 06:11:43;;;;;;;4.77;1.97;;;;;;;11.90;96.17;101695.53;5093614;28;20073;-36
2021/12/31 06:14:10;;;;;;;4.35;2.20;;;;;;;11.94;96.58;101710.31;5093835;28;20065;-37
2021/12/31 06:16:42;;;;;;;8.55;2.65;;;;;;;11.93;96.64;101721.38;5093418;28;20031;-36
2021/12/31 06:19:09;;;;;;;5.22;2.30;;;;;;;11.90;96.60;101728.06;5093467;28;20059;-37
2021/12/31 06:21:40;;;;;;;5.15;2.05;;;;;;;11.78;96.77;101716.22;5093405;28;20047;-37
2021/12/31 06:24:06;;;;;;;6.72;2.65;;;;;;;11.78;96.81;101717.06;5094067;28;20020;-37
2021/12/31 06:26:31;;;;;;;5.80;2.22;;;;;;;11.79;96.86;101734.16;5094164;28;20026;-36
2021/12/31 06:28:57;;;;;;;8.30;2.78;;;;;;;11.68;97.06;101718.59;5093416;28;20094;-36
2021/12/31 06:31:23;;;;;;;8.85;2.53;;;;;;;11.72;97.23;101723.34;5093373;28;20024;-37
2021/12/31 06:33:49;;;;;;;3.95;1.80;;;;;;;11.71;96.96;101716.28;5093608;28;20111;-36
2021/12/31 06:36:14;;;;;;;8.47;2.13;;;;;;;11.69;96.98;101717.53;5093232;28;20064;-36
2021/12/31 06:38:40;;;;;;;5.88;2.25;;;;;;;11.59;97.39;101708.00;5093539;28;20322;-36
2021/12/31 06:41:05;;;;;;;6.23;2.27;;;;;;;11.55;97.39;101705.94;5093250;28;20063;-36
2021/12/31 06:43:30;;;;;;;6.43;2.63;;;;;;;11.63;97.26;101713.81;5093802;28;20243;-37
2021/12/31 06:45:56;;;;;;;7.93;2.40;;;;;;;11.62;97.36;101733.00;5097239;28;20097;-36
2021/12/31 06:48:21;;;;;;;7.43;2.67;;;;;;;11.59;97.08;101718.81;5097673;28;20070;-36
2021/12/31 06:50:46;;;;;;;4.90;2.00;;;;;;;11.57;97.91;101726.34;5097837;28;20032;-36
2021/12/31 06:53:12;;;;;;;5.67;2.00;;;;;;;11.54;97.56;101729.47;5097879;28;20361;-36
2021/12/31 06:55:37;;;;;;;4.27;2.20;;;;;;;11.54;97.35;101726.78;5097351;28;20035;-36
2021/12/31 06:58:02;;;;;;;6.20;2.30;;;;;;;11.50;97.60;101725.53;5096973;28;20541;-36
2021/12/31 07:00:28;;;;;;;9.00;2.40;;;;;;;11.48;97.61;101735.78;5097471;28;20031;-36
2021/12/31 07:03:13;;;;;;;5.00;2.00;;;;;;;11.41;98.14;101737.66;5096847;28;20393;-36
2021/12/31 07:05:43;;;;;;;6.93;2.50;;;;;;;11.40;98.09;101743.28;5097613;28;20362;-36
2021/12/31 07:08:09;;;;;;;5.05;2.28;;;;;;;11.28;98.01;101735.03;5096788;28;20035;-37
2021/12/31 07:10:34;;;;;;;5.97;2.40;;;;;;;11.38;98.02;101750.81;5097297;28;20452;-36
2021/12/31 07:13:10;;;;;;;4.70;2.00;;;;;;;11.39;98.02;101747.88;5096695;28;20388;-36
2021/12/31 07:15:47;;;;;;;4.82;1.90;;;;;;;11.36;97.98;101740.19;5096882;28;20472;-36
2021/12/31 07:18:12;;;;;;;6.00;2.13;;;;;;;11.32;98.36;101737.09;5097004;28;20103;-36
2021/12/31 07:20:38;;;;;;;6.77;2.00;;;;;;;11.32;98.07;101737.09;5096895;28;20066;-36
2021/12/31 07:23:06;;;;;;;7.00;2.22;;;;;;;11.32;98.03;101738.94;5096543;28;20521;-37
2021/12/31 07:25:32;;;;;;;5.22;1.98;;;;;;;11.29;98.04;101733.97;5096655;28;20098;-37
2021/12/31 07:27:58;;;;;;;5.40;2.05;;;;;;;11.26;98.28;101739.81;5096678;28;20028;-37
2021/12/31 07:30:23;;;;;;;6.00;2.10;;;;;;;11.27;97.96;101752.28;5096396;28;20054;-36
2021/12/31 07:32:48;;;;;;;5.70;2.00;;;;;;;11.26;98.29;101751.47;5096326;28;20051;-36
2021/12/31 07:35:13;;;;;;;4.80;2.20;;;;;;;11.20;98.14;101746.91;5097329;28;20028;-36
2021/12/31 07:37:39;;;;;;;4.33;2.00;;;;;;;11.21;97.96;101742.31;5096262;28;20028;-36
2021/12/31 07:40:07;;;;;;;4.70;2.30;;;;;;;11.20;98.12;101741.50;5078472;28;20464;-36
2021/12/31 07:42:33;;;;;;;4.63;1.95;;;;;;;11.23;98.15;101748.38;5097103;28;20481;-36
2021/12/31 07:44:58;;;;;;;5.78;2.13;;;;;;;11.23;97.82;101745.66;5096247;28;20052;-36
2021/12/31 07:47:23;;;;;;;6.10;2.40;;;;;;;11.20;97.94;101746.91;5096366;28;20518;-36
2021/12/31 07:49:48;;;;;;;5.23;2.93;;;;;;;11.20;97.44;101746.06;5095992;28;20024;-36
2021/12/31 07:52:14;;;;;;;3.37;1.90;;;;;;;11.20;97.87;101751.50;5095954;28;20031;-36
2021/12/31 07:54:39;;;;;;;4.83;2.20;;;;;;;11.18;98.21;101759.00;5096156;28;20024;-36
2021/12/31 07:57:04;;;;;;;6.00;2.00;;;;;;;11.17;97.86;101760.03;5095986;28;20293;-36
2021/12/31 07:59:30;;;;;;;7.33;2.07;;;;;;;11.15;98.20;101754.84;5096348;28;20073;-36
2021/12/31 08:01:55;;;;;;;5.60;2.07;;;;;;;11.13;97.77;101748.00;5096042;28;20057;-36
2021/12/31 08:04:20;;;;;;;6.73;2.13;;;;;;;11.07;98.03;101752.34;5096210;28;20031;-36
2021/12/31 08:06:46;;;;;;;5.70;2.27;;;;;;;11.08;98.07;101754.88;5096074;28;20031;-36
2021/12/31 08:09:11;;;;;;;6.80;2.40;;;;;;;11.09;98.11;101761.94;5096852;28;20456;-36
2021/12/31 08:11:37;;;;;;;4.17;2.00;;;;;;;11.11;98.02;101766.31;5077835;28;20066;-36
2021/12/31 08:14:03;;;;;;;5.60;2.15;;;;;;;11.11;97.81;101756.28;5095762;28;20040;-36
2021/12/31 08:16:29;;;;;;;8.00;2.97;;;;;;;11.01;97.63;101740.50;5095719;28;20036;-36
2021/12/31 08:18:54;;;;;;;4.90;1.87;;;;;;;11.13;97.26;101756.09;5095946;28;20479;-36
2021/12/31 08:21:19;;;;;;;4.50;2.13;;;;;;;11.13;97.28;101754.22;5096078;28;20034;-36
2021/12/31 08:23:45;;;;;;;4.87;1.90;;;;;;;11.04;97.32;101747.38;5095301;28;20417;-36
2021/12/31 08:26:10;;;;;;;5.23;1.83;;;;;;;11.15;97.45;101760.25;5095113;28;20440;-36
2021/12/31 08:28:35;;;;;;;3.87;1.90;;;;;;;11.16;96.81;101761.91;5095770;28;20118;-36
2021/12/31 08:31:01;;;;;;;3.80;1.83;;;;;;;11.17;96.96;101754.63;5095363;28;20483;-36
2021/12/31 08:33:26;;;;;;;4.83;1.60;;;;;;;11.19;96.83;101757.97;5095745;28;20385;-36
2021/12/31 08:35:52;;;;;;;6.32;2.13;;;;;;;11.20;96.26;101756.91;5095156;28;20032;-36
2021/12/31 08:38:17;;;;;;;6.20;2.13;;;;;;;11.13;96.32;101745.28;5095270;28;20031;-36
2021/12/31 08:40:43;;;;;;;5.10;1.93;;;;;;;11.24;96.21;101747.31;5096069;28;20039;-36
2021/12/31 08:43:08;;;;;;;5.17;1.80;;;;;;;11.23;95.71;101756.50;5094942;28;20433;-36
2021/12/31 08:45:33;;;;;;;4.43;2.20;;;;;;;11.30;95.32;101757.28;5095386;28;20028;-36
2021/12/31 08:48:00;;;;;;;6.30;2.15;;;;;;;11.34;95.23;101751.22;5095136;28;20027;-36
2021/12/31 08:50:26;;;;;;;6.50;1.90;;;;;;;11.41;95.24;101751.19;5095884;28;20413;-36
2021/12/31 08:52:52;;;;;;;5.30;2.33;;;;;;;11.37;94.71;101732.88;5095019;28;20046;-36
2021/12/31 08:55:17;;;;;;;5.25;2.30;;;;;;;11.46;94.28;101726.19;5094853;28;20024;-36
2021/12/31 08:57:43;;;;;;;5.28;2.30;;;;;;;11.46;94.39;101729.72;5095086;28;20020;-36
2021/12/31 09:00:10;;;;;;;4.13;1.85;;;;;;;11.50;93.98;101738.25;5094814;28;20115;-36
2021/12/31 09:02:35;;;;;;;3.60;1.77;;;;;;;11.50;94.05;101725.53;5094847;28;20024;-36
2021/12/31 09:05:01;;;;;;;2.78;1.60;;;;;;;11.52;93.43;101728.06;5094861;28;20035;-36
2021/12/31 09:07:26;;;;;;;4.45;1.83;;;;;;;11.52;93.23;101730.75;5094538;28;20106;-36
2021/12/31 09:09:52;;;;;;;3.58;2.08;;;;;;;11.49;93.17;101717.63;5095847;28;20052;-36
2021/12/31 09:12:17;;;;;;;4.40;2.40;;;;;;;11.56;93.12;101732.78;5094496;28;20103;-36
2021/12/31 09:14:43;;;;;;;3.47;1.63;;;;;;;11.51;92.65;101726.38;5094917;28;20081;-36
2021/12/31 09:17:08;;;;;;;5.73;2.00;;;;;;;11.63;92.51;101745.50;5094453;28;20415;-36
2021/12/31 09:19:34;;;;;;;3.87;2.13;;;;;;;11.65;92.25;101740.69;5095043;28;20020;-36
2021/12/31 09:21:59;;;;;;;9.53;3.10;;;;;;;11.67;92.06;101735.91;5094088;28;20031;-36
2021/12/31 09:24:24;;;;;;;5.37;2.63;;;;;;;11.70;92.39;101740.84;5094868;28;20385;-36
2021/12/31 09:26:50;;;;;;;5.90;2.13;;;;;;;11.63;92.29;101726.53;5094520;28;20345;-36
2021/12/31 09:29:18;;;;;;;5.00;2.75;;;;;;;11.65;92.38;101733.38;5094764;28;20028;-36
2021/12/31 09:31:44;;;;;;;4.60;2.40;;;;;;;11.68;92.31;101738.38;5093881;28;20472;-36
2021/12/31 09:34:09;;;;;;;5.32;2.78;;;;;;;11.77;91.68;101744.38;5094908;28;20020;-36
2021/12/31 09:36:34;;;;;;;6.83;2.83;;;;;;;11.67;91.69;101722.34;5094322;28;20099;-36
2021/12/31 09:39:00;;;;;;;4.40;2.60;;;;;;;11.81;91.46;101759.16;5094497;28;20425;-36
2021/12/31 09:41:25;;;;;;;7.03;2.67;;;;;;;11.72;91.46;101763.16;5094098;28;20031;-36
2021/12/31 09:43:51;;;;;;;8.20;3.10;;;;;;;11.78;91.22;101773.97;5094600;28;20024;-36
2021/12/31 09:46:18;;;;;;;5.60;1.85;;;;;;;11.78;91.35;101770.44;5093846;28;20533;-36
2021/12/31 09:48:43;;;;;;;7.05;3.20;;;;;;;11.79;91.22;101769.38;5094042;28;20035;-36
2021/12/31 09:51:09;;;;;;;7.30;2.60;;;;;;;11.82;91.33;101777.13;5093902;28;20028;-36
2021/12/31 09:53:35;;;;;;;5.15;2.35;;;;;;;11.80;91.31;101787.28;5094487;28;20024;-36
2021/12/31 09:56:00;;;;;;;5.82;2.78;;;;;;;11.89;90.93;101796.88;5094401;28;20073;-36
2021/12/31 09:58:26;;;;;;;8.88;2.13;;;;;;;11.90;90.98;101793.09;5093786;28;20028;-36
2021/12/31 10:00:57;;;;;;;5.72;2.30;;;;;;;11.91;91.00;101800.22;5094212;28;20024;-36
2021/12/31 10:03:28;;;;;;;5.75;2.03;;;;;;;11.90;90.93;101790.38;5093920;28;20028;-36
2021/12/31 10:05:56;;;;;;;4.43;2.50;;;;;;;11.88;91.62;101781.66;5093482;28;20024;-36
2021/12/31 10:08:24;;;;;;;5.93;3.20;;;;;;;11.87;91.69;101771.03;5093461;28;20135;-36
2021/12/31 10:11:09;;;;;;;4.93;2.70;;;;;;;11.89;90.92;101788.72;5093679;28;20040;-36
2021/12/31 10:13:43;;;;;;;5.72;2.75;;;;;;;11.88;91.05;101811.47;5093900;28;20063;-36
2021/12/31 10:16:31;;;;;;;4.95;2.38;;;;;;;11.81;91.56;101780.84;5093990;28;20028;-36
2021/12/31 10:19:04;;;;;;;4.60;2.50;;;;;;;11.78;91.60;101768.53;5092858;28;20067;-36
2021/12/31 10:21:42;;;;;;;3.45;1.88;;;;;;;11.82;91.84;101777.94;5093278;28;20032;-36
2021/12/31 10:24:22;;;;;;;4.55;1.90;;;;;;;11.77;92.11;101769.59;5093625;28;20032;-37
2021/12/31 10:26:49;;;;;;;7.82;2.70;;;;;;;11.76;91.96;101759.81;5076044;28;20372;-37
2021/12/31 10:29:14;;;;;;;5.82;2.47;;;;;;;11.78;91.94;101765.00;5093630;28;20024;-37
2021/12/31 10:31:44;;;;;;;8.88;5.57;;;;;;;11.83;91.85;101757.09;5093355;28;20081;-37
2021/12/31 10:34:26;;;;;;;9.95;5.72;;;;;;;11.85;92.35;101758.50;5093502;28;20107;-37
2021/12/31 10:36:51;;;;;;;8.02;3.85;;;;;;;11.87;92.03;101771.88;5093618;28;20024;-35
2021/12/31 10:39:20;;;;;;;5.60;3.03;;;;;;;11.93;91.81;101768.28;5093806;28;20448;-36
2021/12/31 10:42:09;;;;;;;4.50;2.58;;;;;;;11.80;91.73;101742.03;5093194;28;20153;-37
2021/12/31 10:44:47;;;;;;;4.40;1.95;;;;;;;11.94;91.66;101769.94;5092194;28;20142;-37
2021/12/31 10:47:15;;;;;;;4.88;2.17;;;;;;;11.90;92.01;101765.16;5092881;28;20046;-37
2021/12/31 10:50:00;;;;;;;5.90;2.45;;;;;;;11.93;92.48;101787.25;5094005;28;20024;-37
2021/12/31 10:53:01;;;;;;;4.45;2.00;;;;;;;11.92;92.03;101791.03;5096428;28;20067;-37
2021/12/31 10:55:31;;;;;;;4.35;2.60;;;;;;;11.94;91.77;101791.63;5106363;28;20075;-37
2021/12/31 10:57:58;;;;;;;4.05;2.30;;;;;;;11.89;91.71;101780.59;5113296;28;20081;-37
2021/12/31 11:00:27;;;;;;;3.85;2.00;;;;;;;11.97;91.78;101791.19;5112969;28;20360;-37
2021/12/31 11:02:53;;;;;;;3.00;2.22;;;;;;;12.00;91.52;101779.91;5113649;28;20059;-37
2021/12/31 11:05:21;;;;;;;4.45;2.00;;;;;;;12.08;91.96;101776.13;5112733;28;20067;-36
2021/12/31 11:07:48;;;;;;;2.42;1.83;;;;;;;12.14;91.02;101769.81;5113434;28;20115;-37
2021/12/31 11:10:14;;;;;;;4.70;2.15;;;;;;;12.19;91.06;101761.03;5113342;28;20051;-37
2021/12/31 11:12:43;;;;;;;;;;;;;;;12.25;91.25;101760.13;5113535;28;20032;-37
2021/12/31 11:15:08;;;;;;;4.93;2.22;;;;;;;12.24;91.55;101743.03;5113037;28;20371;-37
2021/12/31 11:17:34;;;;;;;4.63;1.92;;;;;;;12.28;90.32;101746.16;5113627;28;20031;-37
2021/12/31 11:19:59;;;;;;;4.50;2.27;;;;;;;12.30;90.58;101725.09;5113584;28;20516;-37
2021/12/31 11:22:29;;;;;;;3.40;2.10;;;;;;;12.40;90.46;101725.41;5113342;28;20356;-37
2021/12/31 11:25:17;;;;;;;5.47;2.20;;;;;;;12.42;89.92;101727.91;5113169;28;20116;-37
2021/12/31 11:27:45;;;;;;;4.97;2.25;;;;;;;12.34;90.00;101686.41;5113392;28;20475;-37
2021/12/31 11:30:37;;;;;;;4.85;2.15;;;;;;;12.37;90.52;101682.44;5114926;28;20065;-35
2021/12/31 11:33:08;;;;;;;2.95;1.85;;;;;;;12.47;90.72;101688.19;5117276;28;20028;-35